createdAt,value
2023-02-19T00:00:32.078Z,17.77
2023-02-19T00:02:58.511Z,17.85
2023-02-19T00:05:24.894Z,23.00
2023-02-19T00:07:51.269Z,21.08
2023-02-19T00:10:17.712Z,20.13
2023-02-19T00:12:44.172Z,19.05
2023-02-19T00:15:11.534Z,13.65
2023-02-19T00:17:37.918Z,16.17
2023-02-19T00:20:04.394Z,24.38
2023-02-19T00:22:30.851Z,24.45
2023-02-19T00:24:57.308Z,20.83
2023-02-19T00:27:23.725Z,16.58
2023-02-19T00:29:50.325Z,19.25
2023-02-19T00:32:16.790Z,19.23
2023-02-19T00:34:43.265Z,15.88
2023-02-19T00:37:09.699Z,16.05
2023-02-19T00:39:36.126Z,17.42
2023-02-19T00:42:02.526Z,22.27
2023-02-19T00:44:28.899Z,20.70
2023-02-19T00:46:55.282Z,22.10
2023-02-19T00:49:21.738Z,25.83
2023-02-19T00:51:48.171Z,18.63
2023-02-19T00:54:14.614Z,24.25
2023-02-19T00:56:41.023Z,24.25
2023-02-19T00:59:07.457Z,24.42
2023-02-19T01:01:33.946Z,20.95
2023-02-19T01:04:00.397Z,23.40
2023-02-19T01:06:26.776Z,17.42
2023-02-19T01:08:53.202Z,18.30
2023-02-19T01:11:19.582Z,20.50
2023-02-19T01:13:45.996Z,18.60
2023-02-19T01:16:12.455Z,17.10
2023-02-19T01:18:38.867Z,18.17
2023-02-19T01:21:05.239Z,17.35
2023-02-19T01:23:31.611Z,18.58
2023-02-19T01:25:58.023Z,18.67
2023-02-19T01:28:24.418Z,22.60
2023-02-19T01:30:50.798Z,17.90
2023-02-19T01:33:17.245Z,17.13
2023-02-19T01:35:43.722Z,23.75
2023-02-19T01:38:10.170Z,17.00
2023-02-19T01:40:36.572Z,20.50
2023-02-19T01:43:02.989Z,19.70
2023-02-19T01:45:31.349Z,23.10
2023-02-19T01:47:57.794Z,19.85
2023-02-19T01:50:24.192Z,19.33
2023-02-19T01:52:50.612Z,21.00
2023-02-19T01:55:17.037Z,21.13
2023-02-19T01:57:43.470Z,19.10
2023-02-19T02:00:09.905Z,18.13
2023-02-19T02:02:36.347Z,20.48
2023-02-19T02:05:02.755Z,21.50
2023-02-19T02:07:29.154Z,18.90
2023-02-19T02:09:55.556Z,16.95
2023-02-19T02:12:22.019Z,18.05
2023-02-19T02:14:48.473Z,16.63
2023-02-19T02:17:14.849Z,20.27
2023-02-19T02:19:41.291Z,22.00
2023-02-19T02:22:07.810Z,15.25
2023-02-19T02:24:34.223Z,22.08
2023-02-19T02:27:00.683Z,14.20
2023-02-19T02:29:27.147Z,15.15
2023-02-19T02:31:53.653Z,18.60
2023-02-19T02:34:20.186Z,13.35
2023-02-19T02:36:46.586Z,12.15
2023-02-19T02:39:13.064Z,13.20
2023-02-19T02:41:39.524Z,13.73
2023-02-19T02:44:05.907Z,12.80
2023-02-19T02:46:32.337Z,14.57
2023-02-19T02:48:58.738Z,13.75
2023-02-19T02:51:25.176Z,10.02
2023-02-19T02:53:51.610Z,12.10
2023-02-19T02:56:18.052Z,14.75
2023-02-19T02:58:44.517Z,18.05
2023-02-19T03:01:11.286Z,12.05
2023-02-19T03:03:37.930Z,15.20
2023-02-19T03:06:04.379Z,14.80
2023-02-19T03:08:30.776Z,19.40
2023-02-19T03:10:57.152Z,17.67
2023-02-19T03:13:23.576Z,12.15
2023-02-19T03:15:50.001Z,15.55
2023-02-19T03:18:16.388Z,13.20
2023-02-19T03:20:42.755Z,12.77
2023-02-19T03:23:09.191Z,11.73
2023-02-19T03:25:35.651Z,15.35
2023-02-19T03:28:02.062Z,12.15
2023-02-19T03:30:28.496Z,13.07
2023-02-19T03:32:54.879Z,12.52
2023-02-19T03:35:21.258Z,14.70
2023-02-19T03:37:47.706Z,11.93
2023-02-19T03:40:14.135Z,11.73
2023-02-19T03:42:40.544Z,12.63
2023-02-19T03:45:07.016Z,11.75
2023-02-19T03:47:33.422Z,10.25
2023-02-19T03:49:59.879Z,11.75
2023-02-19T03:52:26.328Z,10.70
2023-02-19T03:54:52.766Z,11.82
2023-02-19T03:57:19.304Z,13.32
2023-02-19T03:59:45.770Z,9.55
2023-02-19T04:02:12.167Z,12.45
2023-02-19T04:04:38.576Z,10.65
2023-02-19T04:07:05.052Z,12.07
2023-02-19T04:09:31.488Z,12.43
2023-02-19T04:11:57.942Z,12.18
2023-02-19T04:14:24.406Z,9.70
2023-02-19T04:16:50.866Z,10.20
2023-02-19T04:19:17.282Z,10.82
2023-02-19T04:21:43.647Z,13.15
2023-02-19T04:24:10.047Z,11.75
2023-02-19T04:26:36.462Z,12.75
2023-02-19T04:29:02.925Z,12.45
2023-02-19T04:31:29.436Z,12.02
2023-02-19T04:33:55.906Z,14.30
2023-02-19T04:36:22.260Z,11.43
2023-02-19T04:38:48.734Z,12.57
2023-02-19T04:41:15.166Z,14.32
2023-02-19T04:43:41.570Z,13.73
2023-02-19T04:46:08.136Z,12.52
2023-02-19T04:48:34.585Z,10.35
2023-02-19T04:51:00.974Z,16.15
2023-02-19T04:53:27.418Z,12.48
2023-02-19T04:55:53.836Z,17.98
2023-02-19T04:58:20.421Z,13.35
2023-02-19T05:00:46.871Z,11.95
2023-02-19T05:03:13.266Z,13.25
2023-02-19T05:05:39.663Z,11.02
2023-02-19T05:08:06.142Z,11.88
2023-02-19T05:10:32.550Z,11.52
2023-02-19T05:12:58.981Z,11.77
2023-02-19T05:15:25.411Z,8.23
2023-02-19T05:17:51.790Z,10.50
2023-02-19T05:20:18.205Z,8.88
2023-02-19T05:22:44.578Z,10.85
2023-02-19T05:25:10.983Z,6.90
2023-02-19T05:27:37.459Z,10.00
2023-02-19T05:30:03.963Z,8.13
2023-02-19T05:32:30.369Z,8.77
2023-02-19T05:34:56.806Z,8.20
2023-02-19T05:37:23.226Z,8.25
2023-02-19T05:39:49.601Z,8.20
2023-02-19T05:42:16.060Z,7.53
2023-02-19T05:44:42.499Z,12.13
2023-02-19T05:47:08.917Z,11.57
2023-02-19T05:49:35.355Z,12.13
2023-02-19T05:52:01.765Z,10.48
2023-02-19T05:54:28.137Z,10.25
2023-02-19T05:56:54.600Z,9.98
2023-02-19T05:59:21.066Z,7.28
2023-02-19T06:01:47.533Z,8.35
2023-02-19T06:04:13.980Z,10.60
2023-02-19T06:06:40.455Z,12.57
2023-02-19T06:09:06.907Z,11.65
2023-02-19T06:11:33.330Z,10.50
2023-02-19T06:13:59.775Z,12.70
2023-02-19T06:16:26.329Z,12.55
2023-02-19T06:18:52.747Z,12.30
2023-02-19T06:21:19.191Z,12.85
2023-02-19T06:23:45.641Z,11.38
2023-02-19T06:26:12.107Z,8.82
2023-02-19T06:28:38.494Z,11.95
2023-02-19T06:31:04.987Z,14.75
2023-02-19T06:33:31.493Z,16.40
2023-02-19T06:35:57.938Z,16.10
2023-02-19T06:38:24.381Z,13.07
2023-02-19T06:40:50.754Z,11.63
2023-02-19T06:43:17.223Z,14.40
2023-02-19T06:45:43.686Z,9.40
2023-02-19T06:48:10.119Z,11.98
2023-02-19T06:50:36.546Z,8.35
2023-02-19T06:53:02.944Z,11.00
2023-02-19T06:55:29.364Z,14.20
2023-02-19T06:57:55.830Z,11.65
2023-02-19T07:00:22.280Z,11.82
2023-02-19T07:02:48.716Z,11.10
2023-02-19T07:05:15.182Z,9.55
2023-02-19T07:07:41.577Z,9.88
2023-02-19T07:10:08.030Z,10.43
2023-02-19T07:12:34.407Z,12.40
2023-02-19T07:15:00.826Z,10.13
2023-02-19T07:17:27.247Z,11.13
2023-02-19T07:19:53.638Z,11.05
2023-02-19T07:22:20.082Z,12.57
2023-02-19T07:24:47.960Z,11.80
2023-02-19T07:27:14.479Z,14.27
2023-02-19T07:29:40.959Z,17.05
2023-02-19T07:32:07.425Z,9.85
2023-02-19T07:34:33.851Z,10.68
2023-02-19T07:37:00.302Z,9.50
2023-02-19T07:39:26.738Z,9.35
2023-02-19T07:41:53.166Z,8.30
2023-02-19T07:44:19.657Z,8.75
2023-02-19T07:46:46.053Z,7.90
2023-02-19T07:49:12.491Z,8.85
2023-02-19T07:51:38.947Z,6.82
2023-02-19T07:54:05.319Z,7.72
2023-02-19T07:56:31.722Z,7.32
2023-02-19T07:58:58.086Z,9.80
2023-02-19T08:01:24.495Z,9.52
2023-02-19T08:03:50.921Z,11.15
2023-02-19T08:06:17.348Z,10.35
2023-02-19T08:08:43.824Z,8.45
2023-02-19T08:11:10.627Z,9.30
2023-02-19T08:13:37.204Z,9.02
2023-02-19T08:16:26.607Z,8.73
2023-02-19T08:18:49.944Z,7.32
2023-02-19T08:21:16.409Z,7.43
2023-02-19T08:23:42.831Z,7.15
2023-02-19T08:26:09.287Z,8.93
2023-02-19T08:28:35.802Z,7.22
2023-02-19T08:31:02.374Z,4.60
2023-02-19T08:33:28.874Z,5.40
2023-02-19T08:35:55.278Z,4.15
2023-02-19T08:38:21.662Z,4.35
2023-02-19T08:40:48.265Z,4.18
2023-02-19T08:43:15.172Z,4.13
2023-02-19T08:45:41.654Z,3.78
2023-02-19T08:48:08.061Z,3.70
2023-02-19T08:50:34.443Z,3.95
2023-02-19T08:53:00.851Z,3.83
2023-02-19T08:55:27.293Z,4.65
2023-02-19T08:57:53.824Z,3.65
2023-02-19T09:00:20.258Z,3.22
2023-02-19T09:02:47.783Z,4.53
2023-02-19T09:05:14.221Z,2.78
2023-02-19T09:07:40.688Z,4.25
2023-02-19T09:10:07.083Z,2.85
2023-02-19T09:12:33.567Z,3.45
2023-02-19T09:15:00.001Z,3.10
2023-02-19T09:17:26.391Z,3.67
2023-02-19T09:19:52.771Z,2.45
2023-02-19T09:22:19.255Z,2.33
2023-02-19T09:24:45.681Z,2.80
2023-02-19T09:27:12.051Z,2.47
2023-02-19T09:29:38.465Z,2.33
2023-02-19T09:32:04.878Z,2.03
2023-02-19T09:34:31.358Z,2.58
2023-02-19T09:36:57.769Z,2.67
2023-02-19T09:39:24.194Z,2.03
2023-02-19T09:41:50.641Z,5.78
2023-02-19T09:44:17.087Z,2.83
2023-02-19T09:46:43.524Z,3.67
2023-02-19T09:49:09.939Z,3.33
2023-02-19T09:51:36.319Z,2.72
2023-02-19T09:54:02.760Z,3.35
2023-02-19T09:56:29.209Z,3.08
2023-02-19T09:58:55.582Z,3.30
2023-02-19T10:01:21.986Z,2.90
2023-02-19T10:03:48.681Z,2.80
2023-02-19T10:06:15.098Z,3.40
2023-02-19T10:08:41.536Z,4.15
2023-02-19T10:11:07.972Z,4.60
2023-02-19T10:13:34.423Z,3.83
2023-02-19T10:16:00.957Z,3.33
2023-02-19T10:18:27.432Z,2.95
2023-02-19T10:20:53.876Z,3.78
2023-02-19T10:23:20.294Z,2.97
2023-02-19T10:25:46.681Z,2.75
2023-02-19T10:28:13.091Z,2.60
2023-02-19T10:30:39.525Z,3.53
2023-02-19T10:33:05.977Z,3.05
2023-02-19T10:35:32.425Z,4.18
2023-02-19T10:37:58.816Z,4.07
2023-02-19T10:40:25.292Z,4.25
2023-02-19T10:42:51.752Z,3.40
2023-02-19T10:45:18.341Z,3.40
2023-02-19T10:47:44.748Z,2.58
2023-02-19T10:50:11.201Z,3.17
2023-02-19T10:52:37.633Z,2.95
2023-02-19T10:55:04.045Z,2.67
2023-02-19T10:57:30.527Z,2.78
2023-02-19T10:59:56.941Z,2.85
2023-02-19T11:02:23.435Z,2.50
2023-02-19T11:04:49.869Z,3.40
2023-02-19T11:07:16.255Z,2.83
2023-02-19T11:09:42.673Z,2.70
2023-02-19T11:12:09.641Z,3.55
2023-02-19T11:14:36.211Z,3.00
2023-02-19T11:17:02.606Z,2.85
2023-02-19T11:19:28.960Z,2.95
2023-02-19T11:21:55.334Z,2.60
2023-02-19T11:24:21.697Z,4.05
2023-02-19T11:26:48.091Z,3.03
2023-02-19T11:29:14.490Z,3.00
2023-02-19T11:31:41.023Z,3.28
2023-02-19T11:34:07.468Z,3.55
2023-02-19T11:36:33.902Z,3.20
2023-02-19T11:39:00.289Z,4.53
2023-02-19T11:41:26.706Z,3.50
2023-02-19T11:43:53.085Z,2.88
2023-02-19T11:46:19.702Z,4.43
2023-02-19T11:48:46.144Z,3.60
2023-02-19T11:51:12.805Z,3.78
2023-02-19T11:53:39.411Z,3.70
2023-02-19T11:56:05.829Z,2.83
2023-02-19T11:58:32.264Z,3.13
2023-02-19T12:00:58.647Z,4.07
2023-02-19T12:03:25.073Z,2.20
2023-02-19T12:05:51.490Z,3.45
2023-02-19T12:08:17.862Z,3.25
2023-02-19T12:10:44.250Z,3.33
2023-02-19T12:13:10.683Z,3.40
2023-02-19T12:15:37.138Z,2.78
2023-02-19T12:18:03.572Z,3.10
2023-02-19T12:20:31.839Z,2.58
2023-02-19T12:22:58.540Z,2.92
2023-02-19T12:25:25.055Z,3.55
2023-02-19T12:27:51.488Z,3.15
2023-02-19T12:30:17.966Z,2.83
2023-02-19T12:32:44.418Z,3.35
2023-02-19T12:35:10.784Z,2.92
2023-02-19T12:37:37.230Z,2.47
2023-02-19T12:40:03.662Z,3.38
2023-02-19T12:42:30.098Z,2.80
2023-02-19T12:44:56.469Z,2.30
2023-02-19T12:47:22.844Z,2.03
2023-02-19T12:49:49.328Z,3.67
2023-02-19T12:52:15.762Z,3.95
2023-02-19T12:54:42.209Z,3.30
2023-02-19T12:57:08.612Z,3.90
2023-02-19T12:59:35.058Z,3.60
2023-02-19T13:02:01.473Z,3.30
2023-02-19T13:04:27.867Z,4.22
2023-02-19T13:06:54.320Z,4.20
2023-02-19T13:09:20.705Z,2.78
2023-02-19T13:11:47.132Z,2.92
2023-02-19T13:14:13.530Z,3.20
2023-02-19T13:16:39.934Z,2.97
2023-02-19T13:19:06.348Z,3.50
2023-02-19T13:21:34.487Z,3.13
2023-02-19T13:24:01.672Z,3.25
2023-02-19T13:26:28.033Z,3.38
2023-02-19T13:28:54.408Z,2.53
2023-02-19T13:31:20.906Z,2.55
2023-02-19T13:33:47.318Z,3.20
2023-02-19T13:36:13.719Z,2.83
2023-02-19T13:38:40.104Z,2.88
2023-02-19T13:41:06.492Z,2.67
2023-02-19T13:43:32.924Z,2.35
2023-02-19T13:45:59.406Z,3.33
2023-02-19T13:48:25.857Z,2.88
2023-02-19T13:50:52.302Z,2.78
2023-02-19T13:53:18.865Z,2.88
2023-02-19T13:55:45.473Z,2.83
2023-02-19T13:58:11.924Z,3.53
2023-02-19T14:00:38.361Z,1.90
2023-02-19T14:03:04.746Z,2.00
2023-02-19T14:05:31.154Z,2.08
2023-02-19T14:07:57.576Z,0.90
2023-02-19T14:10:23.961Z,1.08
2023-02-19T14:12:50.346Z,1.70
2023-02-19T14:15:16.715Z,2.10
2023-02-19T14:17:43.146Z,1.95
2023-02-19T14:20:09.618Z,1.98
2023-02-19T14:22:36.077Z,2.60
2023-02-19T14:25:02.505Z,1.92
2023-02-19T14:27:28.913Z,2.10
2023-02-19T14:29:55.291Z,1.85
2023-02-19T14:32:21.770Z,2.42
2023-02-19T14:34:48.267Z,2.53
2023-02-19T14:37:14.688Z,2.00
2023-02-19T14:39:41.125Z,1.80
2023-02-19T14:42:07.510Z,1.75
2023-02-19T14:44:33.930Z,1.75
2023-02-19T14:47:00.314Z,1.17
2023-02-19T14:49:26.744Z,1.70
2023-02-19T14:51:53.198Z,1.58
2023-02-19T14:54:19.619Z,0.95
2023-02-19T14:56:46.194Z,1.38
2023-02-19T14:59:12.626Z,1.77
2023-02-19T15:01:39.075Z,1.42
2023-02-19T15:04:05.543Z,2.13
2023-02-19T15:06:31.949Z,1.30
2023-02-19T15:08:58.313Z,1.20
2023-02-19T15:11:24.736Z,1.00
2023-02-19T15:13:51.126Z,1.60
2023-02-19T15:16:17.592Z,2.03
2023-02-19T15:18:44.073Z,1.50
2023-02-19T15:21:10.691Z,1.35
2023-02-19T15:23:37.318Z,1.55
2023-02-19T15:26:03.757Z,1.70
2023-02-19T15:28:30.206Z,2.42
2023-02-19T15:30:56.615Z,2.40
2023-02-19T15:33:23.054Z,2.13
2023-02-19T15:35:49.478Z,1.58
2023-02-19T15:38:15.899Z,2.00
2023-02-19T15:40:42.310Z,2.42
2023-02-19T15:43:08.682Z,1.75
2023-02-19T15:45:35.056Z,2.28
2023-02-19T15:48:01.429Z,2.40
2023-02-19T15:50:27.857Z,1.92
2023-02-19T15:52:54.262Z,3.40
2023-02-19T15:55:20.680Z,2.72
2023-02-19T15:57:47.089Z,1.75
2023-02-19T16:00:13.553Z,2.50
2023-02-19T16:02:40.090Z,2.53
2023-02-19T16:05:06.513Z,2.00
2023-02-19T16:07:32.902Z,2.15
2023-02-19T16:09:59.282Z,2.65
2023-02-19T16:12:25.690Z,2.17
2023-02-19T16:14:52.211Z,2.30
2023-02-19T16:17:18.895Z,3.35
2023-02-19T16:19:45.310Z,3.53
2023-02-19T16:22:11.718Z,3.60
2023-02-19T16:24:38.202Z,1.98
2023-02-19T16:27:04.664Z,2.60
2023-02-19T16:29:31.140Z,2.08
2023-02-19T16:31:57.608Z,2.83
2023-02-19T16:34:24.150Z,2.72
2023-02-19T16:36:50.608Z,2.38
2023-02-19T16:39:17.095Z,2.75
2023-02-19T16:41:43.478Z,3.08
2023-02-19T16:44:09.923Z,2.80
2023-02-19T16:46:36.374Z,3.42
2023-02-19T16:49:02.872Z,3.60
2023-02-19T16:51:29.329Z,3.38
2023-02-19T16:53:55.719Z,3.03
2023-02-19T16:56:22.134Z,2.35
2023-02-19T16:58:48.949Z,3.45
2023-02-19T17:01:15.656Z,3.67
2023-02-19T17:03:42.203Z,2.90
2023-02-19T17:06:08.604Z,3.13
2023-02-19T17:08:35.004Z,3.55
2023-02-19T17:11:01.424Z,2.50
2023-02-19T17:13:27.824Z,2.85
2023-02-19T17:15:54.200Z,3.85
2023-02-19T17:18:20.661Z,3.22
2023-02-19T17:20:47.275Z,2.83
2023-02-19T17:23:13.676Z,3.78
2023-02-19T17:25:40.134Z,2.45
2023-02-19T17:28:06.670Z,2.60
2023-02-19T17:30:33.194Z,2.05
2023-02-19T17:32:59.650Z,2.25
2023-02-19T17:35:26.066Z,1.42
2023-02-19T17:37:53.516Z,1.73
2023-02-19T17:40:31.766Z,1.30
2023-02-19T17:42:59.416Z,1.17
2023-02-19T17:45:25.845Z,1.83
2023-02-19T17:47:52.368Z,2.63
2023-02-19T17:50:18.924Z,1.73
2023-02-19T17:52:45.400Z,1.85
2023-02-19T17:55:11.845Z,3.08
2023-02-19T17:57:38.282Z,2.05
2023-02-19T18:00:04.712Z,1.85
2023-02-19T18:02:31.106Z,1.70
2023-02-19T18:04:57.520Z,1.48
2023-02-19T18:07:23.908Z,1.35
2023-02-19T18:09:50.312Z,1.20
2023-02-19T18:12:16.742Z,2.22
2023-02-19T18:14:43.115Z,1.17
2023-02-19T18:17:09.505Z,0.82
2023-02-19T18:19:35.966Z,1.92
2023-02-19T18:22:02.446Z,2.58
2023-02-19T18:24:28.887Z,1.77
2023-02-19T18:26:55.375Z,1.30
2023-02-19T18:29:21.769Z,1.88
2023-02-19T18:31:48.254Z,1.00
2023-02-19T18:34:14.811Z,1.52
2023-02-19T18:36:41.754Z,0.95
2023-02-19T18:39:08.248Z,1.13
2023-02-19T18:41:34.679Z,2.08
2023-02-19T18:44:01.075Z,0.95
2023-02-19T18:46:27.565Z,1.20
2023-02-19T18:48:53.996Z,1.52
2023-02-19T18:51:20.412Z,0.63
2023-02-19T18:53:47.023Z,0.77
2023-02-19T18:56:13.481Z,0.50
2023-02-19T18:58:39.921Z,0.77
2023-02-19T19:01:06.362Z,0.70
2023-02-19T19:03:32.849Z,1.20
2023-02-19T19:05:59.266Z,0.60
2023-02-19T19:08:25.645Z,0.73
2023-02-19T19:10:52.039Z,1.00
2023-02-19T19:13:18.830Z,0.80
2023-02-19T19:15:45.279Z,1.65
2023-02-19T19:18:11.761Z,1.02
2023-02-19T19:20:38.169Z,2.17
2023-02-19T19:23:04.570Z,0.80
2023-02-19T19:25:30.992Z,0.80
2023-02-19T19:27:57.463Z,0.70
2023-02-19T19:30:23.876Z,0.75
2023-02-19T19:32:50.324Z,1.38
2023-02-19T19:35:16.721Z,0.93
2023-02-19T19:37:43.130Z,1.10
2023-02-19T19:40:09.597Z,1.10
2023-02-19T19:42:36.083Z,0.90
2023-02-19T19:45:02.594Z,1.10
2023-02-19T19:47:29.064Z,1.05
2023-02-19T19:49:55.551Z,1.10
2023-02-19T19:52:22.029Z,1.00
2023-02-19T19:54:48.824Z,1.17
2023-02-19T19:57:15.415Z,1.70
2023-02-19T19:59:41.882Z,0.80
2023-02-19T20:02:08.306Z,1.13
2023-02-19T20:04:34.776Z,0.98
2023-02-19T20:07:01.240Z,0.93
2023-02-19T20:09:27.631Z,1.45
2023-02-19T20:11:54.065Z,2.05
2023-02-19T20:14:20.466Z,1.50
2023-02-19T20:16:46.932Z,1.67
2023-02-19T20:19:13.405Z,2.20
2023-02-19T20:21:39.782Z,1.92
2023-02-19T20:24:06.254Z,2.45
2023-02-19T20:26:32.738Z,2.33
2023-02-19T20:29:01.524Z,1.95
2023-02-19T20:31:28.190Z,2.63
2023-02-19T20:33:54.648Z,3.05
2023-02-19T20:36:21.028Z,4.20
2023-02-19T20:38:47.437Z,3.90
2023-02-19T20:41:14.079Z,4.60
2023-02-19T20:43:40.811Z,3.80
2023-02-19T20:46:07.235Z,3.65
2023-02-19T20:48:33.697Z,3.88
2023-02-19T20:51:00.113Z,3.35
2023-02-19T20:53:26.516Z,3.85
2023-02-19T20:55:52.928Z,3.58
2023-02-19T20:58:20.978Z,3.88
2023-02-19T21:00:47.450Z,3.70
2023-02-19T21:03:13.875Z,3.97
2023-02-19T21:05:40.759Z,3.58
2023-02-19T21:08:07.265Z,2.92
2023-02-19T21:10:33.676Z,3.15
2023-02-19T21:13:00.058Z,2.88
2023-02-19T21:15:26.502Z,2.65
2023-02-19T21:17:52.952Z,5.28
2023-02-19T21:20:19.356Z,4.07
2023-02-19T21:22:45.777Z,3.20
2023-02-19T21:25:12.170Z,2.70
2023-02-19T21:27:38.607Z,2.75
2023-02-19T21:30:05.189Z,2.70
2023-02-19T21:32:31.654Z,2.95
2023-02-19T21:34:58.041Z,4.07
2023-02-19T21:37:24.478Z,3.38
2023-02-19T21:39:50.903Z,3.00
2023-02-19T21:42:17.342Z,3.03
2023-02-19T21:44:43.782Z,2.92
2023-02-19T21:47:10.175Z,2.42
2023-02-19T21:49:36.604Z,3.38
2023-02-19T21:52:03.309Z,3.08
2023-02-19T21:54:29.718Z,2.65
2023-02-19T21:56:56.129Z,4.45
2023-02-19T21:59:22.636Z,2.80
2023-02-19T22:01:49.099Z,3.55
2023-02-19T22:04:15.545Z,3.75
2023-02-19T22:06:41.932Z,5.60
2023-02-19T22:09:08.331Z,3.63
2023-02-19T22:11:34.769Z,6.88
2023-02-19T22:14:01.159Z,3.95
2023-02-19T22:16:27.658Z,3.42
2023-02-19T22:18:54.062Z,4.22
2023-02-19T22:21:20.486Z,3.85
2023-02-19T22:23:46.958Z,3.92
2023-02-19T22:26:13.607Z,4.90
2023-02-19T22:28:40.140Z,5.22
2023-02-19T22:31:06.565Z,4.55
2023-02-19T22:33:32.967Z,4.70
2023-02-19T22:35:59.329Z,3.95
2023-02-19T22:38:25.705Z,4.28
2023-02-19T22:40:52.125Z,3.78
2023-02-19T22:43:18.524Z,4.78
2023-02-19T22:45:44.976Z,4.28
2023-02-19T22:48:13.092Z,3.95
2023-02-19T22:50:41.281Z,4.78
2023-02-19T22:53:07.729Z,4.07
2023-02-19T22:55:34.129Z,4.85
2023-02-19T22:58:00.508Z,4.65
2023-02-19T23:00:26.933Z,4.22
2023-02-19T23:02:53.349Z,4.13
2023-02-19T23:05:19.795Z,4.03
2023-02-19T23:07:46.163Z,4.97
2023-02-19T23:10:12.537Z,4.88
2023-02-19T23:12:38.986Z,5.38
2023-02-19T23:15:05.420Z,4.88
2023-02-19T23:17:31.846Z,4.65
2023-02-19T23:19:58.300Z,5.18
2023-02-19T23:22:24.712Z,4.80
2023-02-19T23:24:51.115Z,4.45
2023-02-19T23:27:17.511Z,4.20
2023-02-19T23:29:43.876Z,5.07
2023-02-19T23:32:10.248Z,5.80
2023-02-19T23:34:36.690Z,4.25
2023-02-19T23:37:03.093Z,5.25
2023-02-19T23:39:29.551Z,5.20
2023-02-19T23:41:56.023Z,5.60
2023-02-19T23:44:22.467Z,5.43
2023-02-19T23:46:48.882Z,4.00
2023-02-19T23:49:15.473Z,4.20
2023-02-19T23:51:41.879Z,4.80
2023-02-19T23:54:08.262Z,5.93
2023-02-19T23:56:34.647Z,4.97
2023-02-19T23:59:01.043Z,4.90
